Time;durP1;ratioP1;P1;durP2;ratioP2;P2;SDS_P1;SDS_P2;PMS_P1;PMS_P2;Temp;Humidity;BMP_temperature;BMP_pressure;BME280_temperature;BME280_humidity;BME280_pressure;Samples;Min_cycle;Max_cycle;Signal;HPM_P1;HPM_P2
2022/11/25 02:58:40;;;;;;;33.47;11.97;;;1.60;99.90;;;;;;6139633;22;1495109;-66
2022/11/25 03:01:07;;;;;;;42.50;12.33;;;1.70;99.90;;;;;;6222081;23;20394;-65
2022/11/25 03:03:35;;;;;;;39.73;11.60;;;1.70;99.90;;;;;;6221689;23;20779;-67
2022/11/25 03:06:01;;;;;;;64.77;12.27;;;1.70;99.90;;;;;;6221906;23;20181;-65
2022/11/25 03:08:28;;;;;;;34.17;11.53;;;1.60;99.90;;;;;;6221879;23;20181;-66
2022/11/25 03:10:55;;;;;;;73.77;12.77;;;1.70;99.90;;;;;;6221080;23;20295;-64
2022/11/25 03:13:22;;;;;;;44.00;12.30;;;1.70;99.90;;;;;;6214867;23;20182;-65
2022/11/25 03:15:50;;;;;;;44.63;11.73;;;1.70;99.90;;;;;;6215203;23;20277;-66
2022/11/25 03:18:17;;;;;;;52.53;12.33;;;1.70;99.90;;;;;;6214942;23;20645;-66
2022/11/25 03:20:44;;;;;;;49.13;13.00;;;1.70;99.90;;;;;;6215069;23;20197;-66
2022/11/25 03:23:11;;;;;;;58.20;13.23;;;1.70;99.90;;;;;;6214987;23;20184;-65
2022/11/25 03:25:38;;;;;;;49.77;11.40;;;1.80;99.90;;;;;;6215248;23;20184;-65
2022/11/25 03:28:05;;;;;;;69.77;12.73;;;1.70;99.90;;;;;;6215181;23;20177;-65
2022/11/25 03:30:32;;;;;;;53.00;10.87;;;1.70;99.90;;;;;;6214639;23;20201;-64
2022/11/25 03:33:00;;;;;;;54.33;10.43;;;1.70;99.90;;;;;;6214599;23;20181;-67
2022/11/25 03:35:27;;;;;;;88.90;12.07;;;1.60;99.90;;;;;;6214694;23;20177;-68
2022/11/25 03:37:54;;;;;;;108.13;13.87;;;1.60;99.90;;;;;;6214649;23;20177;-65
2022/11/25 03:40:21;;;;;;;70.77;12.10;;;1.60;99.90;;;;;;6214353;23;20180;-65
2022/11/25 03:42:48;;;;;;;48.37;11.43;;;1.50;99.90;;;;;;6214437;23;20182;-66
2022/11/25 03:45:15;;;;;;;88.03;11.90;;;1.50;99.90;;;;;;6214455;23;20177;-65
2022/11/25 03:47:44;;;;;;;82.60;12.93;;;1.60;99.90;;;;;;6214269;23;20192;-65
2022/11/25 03:50:14;;;;;;;74.60;11.77;;;1.60;99.90;;;;;;6212731;23;20197;-66
2022/11/25 03:52:41;;;;;;;59.33;11.93;;;1.60;99.90;;;;;;6215141;23;20472;-67
2022/11/25 03:55:08;;;;;;;86.00;13.17;;;1.60;99.90;;;;;;6199623;23;20198;-66
2022/11/25 03:57:35;;;;;;;33.97;10.70;;;1.50;99.90;;;;;;6190766;23;20667;-66
2022/11/25 04:00:04;;;;;;;89.63;13.13;;;1.60;99.90;;;;;;6215183;23;20177;-66
2022/11/25 04:02:31;;;;;;;122.20;14.33;;;1.60;99.90;;;;;;6214059;23;20182;-65
2022/11/25 04:04:58;;;;;;;92.37;14.27;;;1.60;99.90;;;;;;6213851;23;20197;-66
2022/11/25 04:07:26;;;;;;;62.37;11.50;;;1.50;99.90;;;;;;6214204;23;20178;-66
2022/11/25 04:09:53;;;;;;;111.97;13.03;;;1.60;99.90;;;;;;6213638;23;20199;-66
2022/11/25 04:15:04;;;;;;;101.50;13.43;;;1.60;99.90;;;;;;6214246;23;20161;-66
2022/11/25 04:17:31;;;;;;;37.60;11.37;;;1.60;99.90;;;;;;6214563;23;20182;-66
2022/11/25 04:19:58;;;;;;;113.57;14.60;;;1.70;99.90;;;;;;6214458;23;20645;-67
2022/11/25 04:22:26;;;;;;;81.77;12.47;;;1.70;99.90;;;;;;6214012;23;20689;-66
2022/11/25 04:24:53;;;;;;;69.10;12.30;;;1.70;99.90;;;;;;6214176;23;20184;-67
2022/11/25 04:27:19;;;;;;;77.80;12.57;;;1.60;99.90;;;;;;6214179;23;20177;-64
2022/11/25 04:29:46;;;;;;;109.50;15.07;;;1.60;99.90;;;;;;6214475;23;20182;-65
2022/11/25 04:32:13;;;;;;;60.70;13.60;;;1.60;99.90;;;;;;6213939;23;20184;-64
2022/11/25 04:34:40;;;;;;;88.40;14.63;;;1.60;99.90;;;;;;6214237;23;20178;-64
2022/11/25 04:37:07;;;;;;;93.83;12.40;;;1.60;99.90;;;;;;6214152;23;20216;-65
2022/11/25 04:39:35;;;;;;;121.17;14.03;;;1.60;99.90;;;;;;6214241;23;20184;-64
2022/11/25 04:44:46;;;;;;;118.20;15.63;;;1.60;99.90;;;;;;6214374;23;20224;-65
2022/11/25 04:47:13;;;;;;;62.00;13.53;;;1.60;99.90;;;;;;6213835;23;20190;-65
2022/11/25 04:49:40;;;;;;;71.70;12.67;;;1.60;99.90;;;;;;6213694;23;20178;-64
2022/11/25 04:52:06;;;;;;;67.97;13.17;;;1.60;99.90;;;;;;6213396;23;20223;-64
2022/11/25 04:54:34;;;;;;;74.30;12.97;;;1.70;99.90;;;;;;6213414;23;20178;-65
2022/11/25 04:57:01;;;;;;;97.23;14.77;;;1.70;99.90;;;;;;6210491;23;20509;-64
2022/11/25 04:59:39;;;;;;;94.30;15.23;;;1.70;99.90;;;;;;6211711;23;20212;-65
2022/11/25 05:02:06;;;;;;;71.23;13.37;;;1.70;99.90;;;;;;6213433;23;20157;-66
2022/11/25 05:04:33;;;;;;;84.57;12.93;;;1.70;99.90;;;;;;6213722;23;20500;-64
2022/11/25 05:06:59;;;;;;;99.97;13.47;;;1.70;99.90;;;;;;6213550;23;20178;-66
2022/11/25 05:09:26;;;;;;;55.60;11.77;;;1.70;99.90;;;;;;6213643;23;20208;-65
2022/11/25 05:11:54;;;;;;;153.10;14.93;;;1.70;99.90;;;;;;6213647;23;20193;-64
2022/11/25 05:14:22;;;;;;;108.80;14.03;;;1.60;99.90;;;;;;6214628;23;20188;-65
2022/11/25 05:16:49;;;;;;;116.63;14.73;;;1.60;99.90;;;;;;6214721;23;20200;-64
2022/11/25 05:19:16;;;;;;;130.23;20.37;;;1.60;99.90;;;;;;6214520;23;20183;-65
2022/11/25 05:21:43;;;;;;;106.23;15.93;;;1.60;99.90;;;;;;6214254;23;20179;-64
2022/11/25 05:24:10;;;;;;;99.30;14.50;;;1.60;99.90;;;;;;6213900;23;20178;-64
2022/11/25 05:26:36;;;;;;;132.27;17.23;;;1.60;99.90;;;;;;6214297;23;20187;-65
2022/11/25 05:29:05;;;;;;;147.60;16.43;;;1.60;99.90;;;;;;6213673;23;20499;-65
2022/11/25 05:31:31;;;;;;;145.10;15.13;;;1.60;99.90;;;;;;6214290;23;20283;-64
2022/11/25 05:34:00;;;;;;;196.07;17.70;;;1.50;99.90;;;;;;6214051;23;20177;-65
2022/11/25 05:36:27;;;;;;;65.37;13.50;;;1.50;99.90;;;;;;6213906;23;20181;-64
2022/11/25 05:38:56;;;;;;;131.50;18.73;;;1.50;99.90;;;;;;6213434;23;20649;-65
2022/11/25 05:41:24;;;;;;;215.47;17.57;;;1.60;99.90;;;;;;6212002;23;20207;-65
2022/11/25 05:43:51;;;;;;;139.87;17.17;;;1.50;99.90;;;;;;6212717;23;20203;-66
2022/11/25 05:46:19;;;;;;;98.10;15.20;;;1.50;99.90;;;;;;6214234;23;20650;-64
2022/11/25 05:48:46;;;;;;;134.40;16.07;;;1.50;99.90;;;;;;6214047;23;20198;-65
2022/11/25 05:51:13;;;;;;;144.33;15.03;;;1.60;99.90;;;;;;6213575;23;20193;-65
2022/11/25 05:53:40;;;;;;;73.43;11.93;;;1.50;99.90;;;;;;6213766;23;20184;-65
2022/11/25 05:56:07;;;;;;;56.77;10.80;;;1.50;99.90;;;;;;6213585;23;20188;-65
2022/11/25 05:58:34;;;;;;;138.87;15.93;;;1.60;99.90;;;;;;6213613;23;20527;-66
2022/11/25 06:01:05;;;;;;;146.00;15.93;;;1.50;99.90;;;;;;6213149;23;20264;-65
2022/11/25 06:03:33;;;;;;;140.90;16.87;;;1.50;99.90;;;;;;6213646;23;20169;-65
2022/11/25 06:06:00;;;;;;;86.40;15.13;;;1.50;99.90;;;;;;6213858;23;20628;-66
2022/11/25 06:08:28;;;;;;;85.80;14.63;;;1.50;99.90;;;;;;6214195;23;20265;-67
2022/11/25 06:10:54;;;;;;;118.30;16.13;;;1.60;99.90;;;;;;6213311;23;20208;-66
2022/11/25 06:13:21;;;;;;;131.00;16.53;;;1.60;99.90;;;;;;6213931;23;20185;-65
2022/11/25 06:15:48;;;;;;;88.93;14.07;;;1.60;99.90;;;;;;6213912;23;20178;-65
2022/11/25 06:18:17;;;;;;;85.00;15.33;;;1.60;99.90;;;;;;6213655;23;20177;-67
2022/11/25 06:20:45;;;;;;;189.23;19.87;;;1.60;99.90;;;;;;6214277;23;20174;-65
2022/11/25 06:23:12;;;;;;;54.03;13.70;;;1.70;99.90;;;;;;6213891;23;20626;-66
2022/11/25 06:25:39;;;;;;;78.13;13.30;;;1.70;99.90;;;;;;6214060;23;20646;-66
2022/11/25 06:28:05;;;;;;;127.83;18.70;;;1.70;99.90;;;;;;6213617;23;20503;-64
2022/11/25 11:05:00;;;;;;;70.20;24.40;;;1.30;99.90;;;;;;5068323;28;20633;-64
2022/11/25 11:10:17;;;;;;;49.23;19.20;;;1.40;99.90;;;;;;5296752;22;20240;-67
2022/11/25 11:12:56;;;;;;;42.90;17.60;;;1.50;99.90;;;;;;5039964;28;20208;-66
2022/11/25 11:15:24;;;;;;;49.23;17.83;;;1.50;99.90;;;;;;5048950;28;20185;-65
2022/11/25 11:17:51;;;;;;;46.57;17.97;;;1.60;99.90;;;;;;5044704;28;20573;-67
2022/11/25 11:20:23;;;;;;;35.57;15.47;;;1.60;99.90;;;;;;5029050;28;20297;-66
2022/11/25 11:22:56;;;;;;;35.63;15.40;;;1.70;99.90;;;;;;5029081;28;20271;-64
2022/11/25 11:25:27;;;;;;;36.83;15.70;;;1.70;99.90;;;;;;5028444;28;20244;-65
2022/11/25 11:27:55;;;;;;;37.70;15.50;;;1.70;99.90;;;;;;5033327;28;20205;-66
2022/11/25 11:30:24;;;;;;;38.40;15.17;;;1.80;99.90;;;;;;5046031;28;20272;-66
2022/11/25 11:32:57;;;;;;;35.23;15.03;;;1.80;99.90;;;;;;5048761;28;20210;-65
2022/11/25 11:35:37;;;;;;;36.93;15.57;;;1.70;99.90;;;;;;5048469;28;20529;-65
2022/11/25 11:38:13;;;;;;;37.53;15.63;;;1.70;99.90;;;;;;5048558;28;20189;-64
2022/11/25 11:40:45;;;;;;;32.00;13.67;;;1.80;99.90;;;;;;5034617;28;20198;-65
2022/11/25 11:43:25;;;;;;;37.03;14.80;;;1.70;99.90;;;;;;5028299;28;20260;-65
2022/11/25 11:46:02;;;;;;;36.93;15.50;;;1.80;99.90;;;;;;5038818;28;20205;-65
2022/11/25 11:48:37;;;;;;;42.90;16.00;;;1.70;99.90;;;;;;5039668;28;20215;-65
2022/11/25 11:51:16;;;;;;;41.37;16.00;;;1.70;99.90;;;;;;5048169;28;20200;-65
2022/11/25 11:53:52;;;;;;;45.43;16.77;;;1.70;99.90;;;;;;5047608;28;20200;-64
2022/11/25 11:56:27;;;;;;;44.73;17.23;;;1.70;99.90;;;;;;5047866;28;20200;-65
2022/11/25 11:59:10;;;;;;;43.83;18.50;;;1.70;99.90;;;;;;5038242;28;20285;-65
2022/11/25 12:01:51;;;;;;;49.90;18.73;;;1.70;99.90;;;;;;5040072;28;20209;-65
2022/11/25 12:04:26;;;;;;;49.00;17.03;;;1.70;99.90;;;;;;5036945;28;20214;-65
2022/11/25 12:07:02;;;;;;;40.47;16.03;;;1.70;99.90;;;;;;5028629;28;20209;-66
2022/11/25 12:09:31;;;;;;;51.30;16.83;;;1.70;99.90;;;;;;5027442;28;20241;-66
2022/11/25 12:12:04;;;;;;;43.60;15.90;;;1.70;99.90;;;;;;5037962;28;20205;-66
2022/11/25 12:14:36;;;;;;;37.27;15.93;;;1.70;99.90;;;;;;5032366;28;20287;-65
2022/11/25 12:17:08;;;;;;;50.53;17.77;;;1.70;99.90;;;;;;5014782;28;20207;-65
2022/11/25 12:19:41;;;;;;;48.20;19.33;;;1.70;99.90;;;;;;5014688;28;20662;-65
2022/11/25 12:22:18;;;;;;;36.33;14.83;;;1.70;99.90;;;;;;5014961;28;20191;-65
2022/11/25 12:24:53;;;;;;;35.77;14.67;;;1.70;99.90;;;;;;5015022;28;20215;-66
2022/11/25 12:27:23;;;;;;;36.47;15.33;;;1.70;99.90;;;;;;5014642;28;20194;-66
2022/11/25 12:29:55;;;;;;;35.60;14.23;;;1.80;99.90;;;;;;5014258;28;20191;-67
2022/11/25 12:32:56;;;;;;;36.97;14.80;;;1.80;99.90;;;;;;5014166;28;20209;-67
2022/11/25 12:35:33;;;;;;;32.77;14.27;;;1.80;99.90;;;;;;4980017;28;20224;-68
2022/11/25 12:38:12;;;;;;;31.93;13.20;;;1.80;99.90;;;;;;5014669;28;20198;-68
2022/11/25 12:40:45;;;;;;;30.33;13.37;;;1.80;99.90;;;;;;5009218;28;20195;-66
2022/11/25 12:43:24;;;;;;;29.30;13.23;;;1.80;99.90;;;;;;5002086;28;20686;-66
2022/11/25 12:46:00;;;;;;;32.10;13.93;;;1.80;99.90;;;;;;5012965;28;20207;-68
2022/11/25 12:48:26;;;;;;;28.73;13.77;;;1.80;99.90;;;;;;5014361;28;20191;-67
2022/11/25 12:51:01;;;;;;;35.30;16.07;;;1.80;99.90;;;;;;5003737;28;20218;-67
2022/11/25 12:53:36;;;;;;;32.37;14.97;;;1.80;99.90;;;;;;5007274;28;20194;-67
2022/11/25 12:56:05;;;;;;;33.43;15.63;;;1.80;99.90;;;;;;5014049;28;20204;-67
2022/11/25 12:58:44;;;;;;;28.80;14.53;;;1.80;99.90;;;;;;5023963;28;20202;-67
2022/11/25 13:01:37;;;;;;;32.90;14.47;;;1.80;99.90;;;;;;5005415;28;20203;-66
2022/11/25 13:04:36;;;;;;;31.20;14.53;;;1.80;99.90;;;;;;4995878;28;20226;-68
2022/11/25 13:07:21;;;;;;;43.07;15.43;;;1.80;99.90;;;;;;5010333;28;20218;-66
2022/11/25 13:10:31;;;;;;;34.37;14.97;;;1.80;99.90;;;;;;5017303;28;20248;-67
2022/11/25 13:13:10;;;;;;;40.73;16.43;;;1.70;99.90;;;;;;5012806;28;20202;-68
2022/11/25 13:15:41;;;;;;;45.10;16.63;;;1.70;99.90;;;;;;5013545;28;20236;-67
2022/11/25 13:18:12;;;;;;;44.43;16.70;;;1.70;99.90;;;;;;5018534;28;20190;-69
2022/11/25 13:20:47;;;;;;;47.70;16.77;;;1.70;99.90;;;;;;5007646;28;20195;-69
2022/11/25 13:23:29;;;;;;;44.53;16.57;;;1.70;99.90;;;;;;5006259;28;20202;-68
2022/11/25 13:26:39;;;;;;;38.07;14.20;;;1.70;99.90;;;;;;4999110;28;20199;-70
2022/11/25 13:29:48;;;;;;;47.97;15.53;;;1.70;99.90;;;;;;5007550;28;20233;-67
2022/11/25 13:32:40;;;;;;;51.30;17.10;;;1.70;99.90;;;;;;5013248;28;20202;-68
2022/11/25 13:35:35;;;;;;;52.53;16.97;;;1.60;99.90;;;;;;5009962;28;20229;-68
2022/11/25 13:38:21;;;;;;;53.20;16.17;;;1.60;99.90;;;;;;5002840;28;20210;-69
2022/11/25 13:40:56;;;;;;;69.70;19.43;;;1.60;99.90;;;;;;4999502;28;20694;-69
2022/11/25 13:43:24;;;;;;;84.83;18.37;;;1.60;99.90;;;;;;5010933;28;20642;-69
2022/11/25 13:45:51;;;;;;;64.77;19.77;;;1.60;99.90;;;;;;5013873;28;20209;-69
2022/11/25 13:48:21;;;;;;;76.80;20.23;;;1.60;99.90;;;;;;5011527;28;20203;-68
2022/11/25 13:50:51;;;;;;;91.93;21.73;;;1.60;99.90;;;;;;5012597;28;20193;-69
2022/11/25 13:53:25;;;;;;;93.77;19.93;;;1.60;99.90;;;;;;5011468;28;20202;-69
2022/11/25 13:55:53;;;;;;;108.93;23.23;;;1.60;99.90;;;;;;5013427;28;20650;-67
2022/11/25 13:58:24;;;;;;;99.30;20.53;;;1.60;99.90;;;;;;5011950;28;20211;-70
2022/11/25 14:01:22;;;;;;;101.87;22.13;;;1.60;99.90;;;;;;5012863;28;20302;-67
2022/11/25 14:04:00;;;;;;;122.13;22.40;;;1.60;99.90;;;;;;5009954;28;20290;-68
2022/11/25 14:07:06;;;;;;;70.83;18.97;;;1.50;99.90;;;;;;5007166;28;20249;-67
2022/11/25 14:09:44;;;;;;;114.73;21.23;;;1.60;99.90;;;;;;5005734;28;20242;-68
2022/11/25 14:12:30;;;;;;;107.80;24.73;;;1.60;99.90;;;;;;5000099;28;20203;-68
2022/11/25 14:15:30;;;;;;;111.43;28.27;;;1.60;99.90;;;;;;5010364;28;20190;-67
2022/11/25 14:18:28;;;;;;;68.70;22.43;;;1.60;99.90;;;;;;5016820;28;20202;-68
2022/11/25 14:21:02;;;;;;;148.30;22.20;;;1.70;99.90;;;;;;4993508;28;20551;-67
2022/11/25 14:23:49;;;;;;;155.67;23.93;;;1.70;99.90;;;;;;5011481;28;20208;-68
2022/11/25 14:26:25;;;;;;;121.53;23.47;;;1.60;99.90;;;;;;5032923;28;20212;-67
2022/11/25 14:28:56;;;;;;;188.07;25.30;;;1.60;99.90;;;;;;5032903;28;20669;-68
2022/11/25 14:31:32;;;;;;;155.13;27.07;;;1.60;99.90;;;;;;5025234;28;20214;-68
2022/11/25 14:34:05;;;;;;;176.07;23.73;;;1.60;99.90;;;;;;5023580;28;20213;-68
2022/11/25 14:36:36;;;;;;;198.93;26.17;;;1.60;99.90;;;;;;4993748;28;20563;-66
2022/11/25 14:39:08;;;;;;;128.83;24.17;;;1.70;99.90;;;;;;4993418;28;20196;-68
2022/11/25 14:41:39;;;;;;;227.53;27.47;;;1.70;99.90;;;;;;4993486;28;20555;-70
2022/11/25 14:44:13;;;;;;;104.47;19.43;;;1.70;99.90;;;;;;4993270;28;20242;-67
2022/11/25 14:46:52;;;;;;;195.00;24.67;;;1.70;99.90;;;;;;4993301;28;20191;-68
2022/11/25 14:49:21;;;;;;;148.07;22.40;;;1.70;99.90;;;;;;4992974;28;20191;-68
2022/11/25 14:51:50;;;;;;;200.23;26.37;;;1.70;99.90;;;;;;5000162;28;20639;-67
2022/11/25 14:54:17;;;;;;;162.63;26.43;;;1.60;99.90;;;;;;5011392;28;20557;-68
2022/11/25 14:56:46;;;;;;;155.53;24.87;;;1.70;99.90;;;;;;5012410;28;20206;-67
2022/11/25 14:59:14;;;;;;;144.33;24.80;;;1.70;99.90;;;;;;5019490;28;20297;-68
2022/11/25 19:06:34;;;;;;;37.43;15.80;;;0.90;99.90;;;;;;5581253;22;20602;-65
2022/11/25 19:09:02;;;;;;;35.60;14.93;;;0.90;99.90;;;;;;5086716;28;20219;-67
2022/11/25 19:11:32;;;;;;;36.20;14.13;;;0.90;99.90;;;;;;5089027;28;20200;-65
2022/11/25 19:14:04;;;;;;;32.93;13.07;;;1.00;99.90;;;;;;5079344;28;20189;-65
2022/11/25 19:16:31;;;;;;;26.53;12.83;;;1.10;99.90;;;;;;5061398;28;20659;-66
2022/11/25 19:18:58;;;;;;;29.10;12.17;;;1.20;99.90;;;;;;5063593;28;20676;-65
2022/11/25 19:21:25;;;;;;;33.20;14.10;;;1.20;99.90;;;;;;5049044;28;20214;-64
2022/11/25 19:23:53;;;;;;;30.13;13.93;;;1.20;99.90;;;;;;5048662;28;20217;-66
2022/11/25 19:26:24;;;;;;;25.60;11.63;;;1.30;99.90;;;;;;5057362;28;20228;-66
2022/11/25 19:28:55;;;;;;;20.03;10.07;;;1.30;99.90;;;;;;5069178;28;20529;-65
2022/11/25 19:31:22;;;;;;;27.53;12.33;;;1.40;99.90;;;;;;5069226;28;20199;-67
2022/11/25 19:33:50;;;;;;;23.30;11.10;;;1.40;99.90;;;;;;5063717;28;20202;-66
2022/11/25 19:36:22;;;;;;;25.03;12.13;;;1.40;99.90;;;;;;5064421;28;20556;-66
2022/11/25 19:38:49;;;;;;;21.33;11.10;;;1.40;99.90;;;;;;5052817;28;20189;-66
2022/11/25 19:41:18;;;;;;;22.47;11.00;;;1.40;99.90;;;;;;5068602;28;20215;-66
2022/11/25 19:43:44;;;;;;;23.43;11.00;;;1.40;99.90;;;;;;5068563;28;20211;-64
2022/11/25 19:46:23;;;;;;;16.73;9.30;;;1.40;99.90;;;;;;5068510;28;20235;-66
2022/11/25 19:48:51;;;;;;;18.47;9.73;;;1.40;99.90;;;;;;5055477;28;20232;-64
2022/11/25 19:51:19;;;;;;;24.57;11.10;;;1.40;99.90;;;;;;5056798;28;20217;-65
2022/11/25 19:53:45;;;;;;;21.50;10.57;;;1.40;99.90;;;;;;5059256;28;20200;-64
2022/11/25 19:56:18;;;;;;;122.07;64.93;;;1.40;99.90;;;;;;5057129;28;20205;-66
2022/11/25 19:58:45;;;;;;;36.83;19.20;;;1.50;99.90;;;;;;5059515;28;20220;-65
2022/11/25 20:01:15;;;;;;;94.07;47.67;;;1.50;99.90;;;;;;5056845;28;20203;-67
2022/11/25 20:03:43;;;;;;;29.50;16.30;;;1.50;99.90;;;;;;5058585;28;20212;-66
2022/11/25 20:06:13;;;;;;;18.43;10.07;;;1.50;99.90;;;;;;5057217;28;20237;-65
2022/11/25 20:08:40;;;;;;;21.40;11.20;;;1.50;99.90;;;;;;5056381;28;20204;-66
2022/11/25 20:11:08;;;;;;;18.10;9.87;;;1.40;99.90;;;;;;5058243;28;20207;-65
2022/11/25 20:13:36;;;;;;;18.43;9.50;;;1.50;99.90;;;;;;5056738;28;20197;-66
2022/11/25 20:16:04;;;;;;;18.67;9.43;;;1.40;99.90;;;;;;5051421;28;20208;-66
2022/11/25 20:18:31;;;;;;;21.43;11.03;;;1.50;99.90;;;;;;5046538;28;20206;-66
2022/11/25 20:21:01;;;;;;;19.60;10.40;;;1.50;99.90;;;;;;5043300;28;20200;-69
2022/11/25 20:23:33;;;;;;;25.80;11.63;;;1.50;99.90;;;;;;5043900;28;20203;-67
2022/11/25 20:26:00;;;;;;;24.27;11.07;;;1.50;99.90;;;;;;5043602;28;20251;-65
2022/11/25 20:28:29;;;;;;;21.70;11.23;;;1.50;99.90;;;;;;5038711;28;20202;-65
2022/11/25 20:30:58;;;;;;;22.50;10.90;;;1.50;99.90;;;;;;5043519;28;20251;-66
2022/11/25 20:33:25;;;;;;;18.50;10.03;;;1.50;99.90;;;;;;5045172;28;20197;-66
2022/11/25 20:35:58;;;;;;;18.30;9.50;;;1.50;99.90;;;;;;5054293;28;20201;-65
2022/11/25 20:38:28;;;;;;;214.93;96.10;;;1.50;99.90;;;;;;5046590;28;20304;-68
2022/11/25 20:40:57;;;;;;;128.07;76.67;;;1.50;99.90;;;;;;5044448;28;20198;-68
2022/11/25 20:43:28;;;;;;;28.03;15.57;;;1.60;99.90;;;;;;5045490;28;20245;-67
2022/11/25 20:45:57;;;;;;;16.27;8.77;;;1.60;99.90;;;;;;5053586;28;20220;-66
2022/11/25 20:48:24;;;;;;;16.47;8.77;;;1.60;99.90;;;;;;5049262;28;20220;-66
2022/11/25 20:50:52;;;;;;;15.80;8.50;;;1.60;99.90;;;;;;5051778;28;20216;-66
2022/11/25 20:53:21;;;;;;;17.40;9.17;;;1.60;99.90;;;;;;5042580;28;20651;-68
2022/11/25 20:55:49;;;;;;;16.47;9.07;;;1.60;99.90;;;;;;5051658;28;20594;-69
2022/11/25 20:58:21;;;;;;;17.83;8.83;;;1.60;99.90;;;;;;5051162;28;20209;-69
2022/11/25 21:00:48;;;;;;;17.03;8.63;;;1.60;99.90;;;;;;5038579;28;20198;-69
2022/11/25 21:03:17;;;;;;;17.87;9.37;;;1.60;99.90;;;;;;5045189;28;20212;-66
2022/11/25 21:05:44;;;;;;;19.67;9.53;;;1.50;99.90;;;;;;5053329;28;20255;-69
2022/11/25 21:08:14;;;;;;;18.47;9.13;;;1.50;99.90;;;;;;5042071;28;20216;-70
2022/11/25 21:10:42;;;;;;;17.80;9.30;;;1.50;99.90;;;;;;5044023;28;20205;-70
2022/11/25 21:13:15;;;;;;;20.97;10.80;;;1.50;99.90;;;;;;5051460;28;20667;-70
2022/11/25 21:15:42;;;;;;;16.50;8.93;;;1.50;99.90;;;;;;5039319;28;20570;-70
2022/11/25 21:18:09;;;;;;;17.13;8.50;;;1.50;99.90;;;;;;5046396;28;20213;-69
2022/11/25 21:20:39;;;;;;;15.90;8.47;;;1.50;99.90;;;;;;5034149;28;20216;-69
2022/11/25 21:23:07;;;;;;;14.40;8.63;;;1.50;99.90;;;;;;5050661;28;20433;-68
2022/11/25 21:25:34;;;;;;;14.53;8.13;;;1.50;99.90;;;;;;5053792;28;20221;-71
2022/11/25 21:28:02;;;;;;;14.20;8.30;;;1.50;99.90;;;;;;5053099;28;20230;-70
2022/11/25 21:30:30;;;;;;;14.37;8.20;;;1.60;99.90;;;;;;5054172;28;20201;-70
2022/11/25 21:32:59;;;;;;;14.67;8.03;;;1.50;99.90;;;;;;5054202;28;20223;-69
2022/11/25 21:35:30;;;;;;;14.13;7.80;;;1.50;99.90;;;;;;5038059;28;20198;-70
2022/11/25 21:38:01;;;;;;;12.97;7.63;;;1.50;99.90;;;;;;5034335;28;20191;-70
2022/11/25 21:40:33;;;;;;;13.80;8.20;;;1.50;99.90;;;;;;5046461;28;20209;-72
2022/11/25 21:43:00;;;;;;;11.63;7.37;;;1.50;99.90;;;;;;5053908;28;20190;-69
2022/11/25 21:45:27;;;;;;;12.93;7.50;;;1.50;99.90;;;;;;5053517;28;20229;-70
2022/11/25 21:47:53;;;;;;;13.90;8.00;;;1.50;99.90;;;;;;5053886;28;20201;-68
2022/11/25 21:50:20;;;;;;;13.57;7.97;;;1.50;99.90;;;;;;5053675;28;20205;-70
2022/11/25 21:52:47;;;;;;;14.47;8.17;;;1.50;99.90;;;;;;5052889;28;20664;-69
2022/11/25 21:55:17;;;;;;;10.30;6.80;;;1.40;99.90;;;;;;5054365;28;20201;-70
2022/11/25 21:57:44;;;;;;;16.10;9.45;;;1.50;99.90;;;;;;5052207;28;20429;-69
2022/11/25 22:00:20;;;;;;;11.97;7.70;;;1.50;99.90;;;;;;5043477;28;20574;-68
2022/11/25 22:02:47;;;;;;;13.13;8.53;;;1.50;99.90;;;;;;5039849;28;20645;-69
2022/11/25 22:05:15;;;;;;;12.47;7.03;;;1.50;99.90;;;;;;5052517;28;20338;-69
2022/11/25 22:07:42;;;;;;;15.13;9.37;;;1.50;99.90;;;;;;5051975;28;20248;-69
2022/11/25 22:10:09;;;;;;;11.07;7.03;;;1.60;99.90;;;;;;5051551;28;20206;-69
2022/11/25 22:12:38;;;;;;;11.13;6.90;;;1.50;99.90;;;;;;5050121;28;20205;-67
2022/11/25 22:15:09;;;;;;;28.33;16.60;;;1.50;99.90;;;;;;5052768;28;20251;-69
2022/11/25 22:17:36;;;;;;;12.17;7.47;;;1.50;99.90;;;;;;5039317;28;20657;-66
2022/11/25 22:20:04;;;;;;;10.63;6.97;;;1.50;99.90;;;;;;5033280;28;20606;-66
2022/11/25 22:22:32;;;;;;;11.20;6.93;;;1.50;99.90;;;;;;5051513;28;20703;-66
2022/11/25 22:24:58;;;;;;;12.83;7.17;;;1.50;99.90;;;;;;5035460;28;20208;-66
2022/11/25 22:27:27;;;;;;;10.40;6.20;;;1.50;99.90;;;;;;5044354;28;20228;-68
2022/11/25 22:29:55;;;;;;;10.90;6.53;;;1.50;99.90;;;;;;5053075;28;20573;-68
2022/11/25 22:32:22;;;;;;;10.93;6.70;;;1.50;99.90;;;;;;5049289;28;20243;-68
2022/11/25 22:34:49;;;;;;;10.90;5.83;;;1.50;99.90;;;;;;5051021;28;20205;-68
2022/11/25 22:37:18;;;;;;;11.07;6.57;;;1.50;99.90;;;;;;5052763;28;20201;-68
2022/11/25 22:39:45;;;;;;;10.50;6.07;;;1.40;99.90;;;;;;5034932;28;20208;-68
2022/11/25 22:42:19;;;;;;;11.23;6.70;;;1.40;99.90;;;;;;5049209;28;20220;-68
2022/11/25 22:44:48;;;;;;;10.23;6.23;;;1.40;99.90;;;;;;5052105;28;20200;-69
2022/11/25 22:47:21;;;;;;;8.27;5.27;;;1.50;99.90;;;;;;5051988;28;20225;-70
2022/11/25 22:49:48;;;;;;;7.93;5.20;;;1.50;99.90;;;;;;5053001;28;20189;-68
2022/11/25 22:52:20;;;;;;;7.23;4.50;;;1.50;99.90;;;;;;5041135;28;20201;-67
2022/11/25 22:54:46;;;;;;;9.43;5.30;;;1.50;99.90;;;;;;5032983;28;20191;-68
2022/11/25 22:57:13;;;;;;;9.50;5.73;;;1.50;99.90;;;;;;5032633;28;20205;-68
2022/11/25 22:59:40;;;;;;;316.23;161.13;;;1.50;99.90;;;;;;5032760;28;20300;-69
2022/11/25 23:02:07;;;;;;;12.30;7.73;;;1.50;99.90;;;;;;5033922;28;20213;-71
2022/11/25 23:04:35;;;;;;;10.20;5.80;;;1.50;99.90;;;;;;5050877;28;20239;-66
2022/11/25 23:07:02;;;;;;;10.07;5.97;;;1.50;99.90;;;;;;5050812;28;20244;-68
